sensor_id;sensor_type;location;lat;lon;timestamp;temperature;humidity
46652;DHT22;32377;52.182;5.398;2022-09-02T00:01:41;16.80;99.90
46652;DHT22;32377;52.182;5.398;2022-09-02T00:04:12;16.80;99.90
46652;DHT22;32377;52.182;5.398;2022-09-02T00:06:39;16.70;99.90
46652;DHT22;32377;52.182;5.398;2022-09-02T00:09:08;16.70;99.90
46652;DHT22;32377;52.182;5.398;2022-09-02T00:11:35;16.70;99.90
46652;DHT22;32377;52.182;5.398;2022-09-02T00:14:06;16.70;99.90
46652;DHT22;32377;52.182;5.398;2022-09-02T00:16:32;16.70;99.90
46652;DHT22;32377;52.182;5.398;2022-09-02T00:19:00;16.70;99.90
46652;DHT22;32377;52.182;5.398;2022-09-02T00:21:27;16.60;99.90
46652;DHT22;32377;52.182;5.398;2022-09-02T00:23:52;16.60;99.90
46652;DHT22;32377;52.182;5.398;2022-09-02T00:26:18;16.50;99.90
46652;DHT22;32377;52.182;5.398;2022-09-02T00:28:44;16.40;99.90
46652;DHT22;32377;52.182;5.398;2022-09-02T00:31:12;16.40;99.90
46652;DHT22;32377;52.182;5.398;2022-09-02T00:33:38;16.40;99.90
46652;DHT22;32377;52.182;5.398;2022-09-02T00:36:04;16.40;99.90
46652;DHT22;32377;52.182;5.398;2022-09-02T00:38:31;16.40;99.90
46652;DHT22;32377;52.182;5.398;2022-09-02T00:40:59;16.40;99.90
46652;DHT22;32377;52.182;5.398;2022-09-02T00:43:47;16.30;99.90
46652;DHT22;32377;52.182;5.398;2022-09-02T00:46:15;16.30;99.90
46652;DHT22;32377;52.182;5.398;2022-09-02T00:49:08;16.20;99.90
46652;DHT22;32377;52.182;5.398;2022-09-02T00:54:22;16.10;99.90
46652;DHT22;32377;52.182;5.398;2022-09-02T00:56:49;16.10;99.90
46652;DHT22;32377;52.182;5.398;2022-09-02T00:59:22;16.10;99.90
46652;DHT22;32377;52.182;5.398;2022-09-02T01:01:49;16.10;99.90
46652;DHT22;32377;52.182;5.398;2022-09-02T01:04:14;16.10;99.90
46652;DHT22;32377;52.182;5.398;2022-09-02T01:06:41;16.00;99.90
46652;DHT22;32377;52.182;5.398;2022-09-02T01:09:11;16.00;99.90
46652;DHT22;32377;52.182;5.398;2022-09-02T01:11:46;15.90;99.90
46652;DHT22;32377;52.182;5.398;2022-09-02T01:14:14;15.80;99.90
46652;DHT22;32377;52.182;5.398;2022-09-02T01:16:46;15.80;99.90
46652;DHT22;32377;52.182;5.398;2022-09-02T01:19:23;15.70;99.90
46652;DHT22;32377;52.182;5.398;2022-09-02T01:21:51;15.70;99.90
46652;DHT22;32377;52.182;5.398;2022-09-02T01:24:18;15.70;99.90
46652;DHT22;32377;52.182;5.398;2022-09-02T01:26:44;15.70;99.90
46652;DHT22;32377;52.182;5.398;2022-09-02T01:29:10;15.60;99.90
46652;DHT22;32377;52.182;5.398;2022-09-02T01:31:36;15.60;99.90
46652;DHT22;32377;52.182;5.398;2022-09-02T01:34:02;15.50;99.90
46652;DHT22;32377;52.182;5.398;2022-09-02T01:36:31;15.50;99.90
46652;DHT22;32377;52.182;5.398;2022-09-02T01:38:57;15.50;99.90
46652;DHT22;32377;52.182;5.398;2022-09-02T01:41:23;15.50;99.90
46652;DHT22;32377;52.182;5.398;2022-09-02T01:43:48;15.50;99.90
46652;DHT22;32377;52.182;5.398;2022-09-02T01:46:14;15.40;99.90
46652;DHT22;32377;52.182;5.398;2022-09-02T01:48:40;15.50;99.90
46652;DHT22;32377;52.182;5.398;2022-09-02T01:51:06;15.40;99.90
46652;DHT22;32377;52.182;5.398;2022-09-02T01:53:32;15.50;99.90
46652;DHT22;32377;52.182;5.398;2022-09-02T01:55:58;15.50;99.90
46652;DHT22;32377;52.182;5.398;2022-09-02T01:58:23;15.50;99.90
46652;DHT22;32377;52.182;5.398;2022-09-02T02:00:49;15.50;99.90
46652;DHT22;32377;52.182;5.398;2022-09-02T02:03:15;15.40;99.90
46652;DHT22;32377;52.182;5.398;2022-09-02T02:05:41;15.40;99.90
46652;DHT22;32377;52.182;5.398;2022-09-02T02:08:07;15.40;99.90
46652;DHT22;32377;52.182;5.398;2022-09-02T02:10:33;15.40;99.90
46652;DHT22;32377;52.182;5.398;2022-09-02T02:13:00;15.40;99.90
46652;DHT22;32377;52.182;5.398;2022-09-02T02:15:26;15.40;99.90
46652;DHT22;32377;52.182;5.398;2022-09-02T02:17:51;15.40;99.90
46652;DHT22;32377;52.182;5.398;2022-09-02T02:20:19;15.40;99.90
46652;DHT22;32377;52.182;5.398;2022-09-02T02:22:46;15.40;99.90
46652;DHT22;32377;52.182;5.398;2022-09-02T02:25:13;15.40;99.90
46652;DHT22;32377;52.182;5.398;2022-09-02T02:27:40;15.40;99.90
46652;DHT22;32377;52.182;5.398;2022-09-02T02:30:07;15.40;99.90
46652;DHT22;32377;52.182;5.398;2022-09-02T02:32:33;15.40;99.90
46652;DHT22;32377;52.182;5.398;2022-09-02T02:35:00;15.30;99.90
46652;DHT22;32377;52.182;5.398;2022-09-02T02:37:26;15.40;99.90
46652;DHT22;32377;52.182;5.398;2022-09-02T02:39:51;15.40;99.90
46652;DHT22;32377;52.182;5.398;2022-09-02T02:42:17;15.30;99.90
46652;DHT22;32377;52.182;5.398;2022-09-02T02:44:42;15.30;99.90
46652;DHT22;32377;52.182;5.398;2022-09-02T02:47:08;15.40;99.90
46652;DHT22;32377;52.182;5.398;2022-09-02T02:49:42;15.40;99.90
46652;DHT22;32377;52.182;5.398;2022-09-02T02:52:09;15.30;99.90
46652;DHT22;32377;52.182;5.398;2022-09-02T02:54:35;15.30;99.90
46652;DHT22;32377;52.182;5.398;2022-09-02T02:57:02;15.30;99.90
46652;DHT22;32377;52.182;5.398;2022-09-02T02:59:29;15.30;99.90
46652;DHT22;32377;52.182;5.398;2022-09-02T03:01:54;15.30;99.90
46652;DHT22;32377;52.182;5.398;2022-09-02T03:04:20;15.20;99.90
46652;DHT22;32377;52.182;5.398;2022-09-02T03:06:46;15.30;99.90
46652;DHT22;32377;52.182;5.398;2022-09-02T03:09:11;15.30;99.90
46652;DHT22;32377;52.182;5.398;2022-09-02T03:11:38;15.30;99.90
46652;DHT22;32377;52.182;5.398;2022-09-02T03:14:03;15.20;99.90
46652;DHT22;32377;52.182;5.398;2022-09-02T03:16:30;15.20;99.90
46652;DHT22;32377;52.182;5.398;2022-09-02T03:18:55;15.20;99.90
46652;DHT22;32377;52.182;5.398;2022-09-02T03:21:21;15.10;99.90
46652;DHT22;32377;52.182;5.398;2022-09-02T03:23:47;15.10;99.90
46652;DHT22;32377;52.182;5.398;2022-09-02T03:26:18;15.10;99.90
46652;DHT22;32377;52.182;5.398;2022-09-02T03:28:44;15.10;99.90
46652;DHT22;32377;52.182;5.398;2022-09-02T03:31:17;15.10;99.90
46652;DHT22;32377;52.182;5.398;2022-09-02T03:33:43;15.10;99.90
46652;DHT22;32377;52.182;5.398;2022-09-02T03:36:18;15.10;99.90
46652;DHT22;32377;52.182;5.398;2022-09-02T03:38:44;15.00;99.90
46652;DHT22;32377;52.182;5.398;2022-09-02T03:41:09;15.00;99.90
46652;DHT22;32377;52.182;5.398;2022-09-02T03:43:35;14.90;99.90
46652;DHT22;32377;52.182;5.398;2022-09-02T03:46:01;14.90;99.90
46652;DHT22;32377;52.182;5.398;2022-09-02T03:48:26;14.90;99.90
46652;DHT22;32377;52.182;5.398;2022-09-02T03:50:53;14.90;99.90
46652;DHT22;32377;52.182;5.398;2022-09-02T03:53:19;14.80;99.90
46652;DHT22;32377;52.182;5.398;2022-09-02T03:55:44;14.80;99.90
46652;DHT22;32377;52.182;5.398;2022-09-02T03:58:10;14.80;99.90
46652;DHT22;32377;52.182;5.398;2022-09-02T04:00:36;14.80;99.90
46652;DHT22;32377;52.182;5.398;2022-09-02T04:03:03;14.80;99.90
46652;DHT22;32377;52.182;5.398;2022-09-02T04:05:29;14.70;99.90
46652;DHT22;32377;52.182;5.398;2022-09-02T04:07:55;14.80;99.90
46652;DHT22;32377;52.182;5.398;2022-09-02T04:10:21;14.80;99.90
46652;DHT22;32377;52.182;5.398;2022-09-02T04:12:48;14.80;99.90
46652;DHT22;32377;52.182;5.398;2022-09-02T04:15:14;14.90;99.90
46652;DHT22;32377;52.182;5.398;2022-09-02T04:17:41;14.80;99.90
46652;DHT22;32377;52.182;5.398;2022-09-02T04:20:09;14.80;99.90
46652;DHT22;32377;52.182;5.398;2022-09-02T04:22:35;14.80;99.90
46652;DHT22;32377;52.182;5.398;2022-09-02T04:25:01;14.80;99.90
46652;DHT22;32377;52.182;5.398;2022-09-02T04:27:27;14.80;99.90
46652;DHT22;32377;52.182;5.398;2022-09-02T04:29:52;14.80;99.90
46652;DHT22;32377;52.182;5.398;2022-09-02T04:32:18;14.80;99.90
46652;DHT22;32377;52.182;5.398;2022-09-02T04:34:46;14.80;99.90
46652;DHT22;32377;52.182;5.398;2022-09-02T04:37:11;14.80;99.90
46652;DHT22;32377;52.182;5.398;2022-09-02T04:39:38;14.80;99.90
46652;DHT22;32377;52.182;5.398;2022-09-02T04:42:04;14.90;99.90
46652;DHT22;32377;52.182;5.398;2022-09-02T04:44:29;14.80;99.90
46652;DHT22;32377;52.182;5.398;2022-09-02T04:46:55;14.80;99.90
46652;DHT22;32377;52.182;5.398;2022-09-02T04:49:21;14.80;99.90
46652;DHT22;32377;52.182;5.398;2022-09-02T04:51:46;14.80;99.90
46652;DHT22;32377;52.182;5.398;2022-09-02T04:54:12;14.80;99.90
46652;DHT22;32377;52.182;5.398;2022-09-02T04:56:37;14.90;99.90
46652;DHT22;32377;52.182;5.398;2022-09-02T04:59:03;14.80;99.90
46652;DHT22;32377;52.182;5.398;2022-09-02T05:01:33;14.90;99.90
46652;DHT22;32377;52.182;5.398;2022-09-02T05:03:59;14.90;99.90
46652;DHT22;32377;52.182;5.398;2022-09-02T05:06:27;14.90;99.90
46652;DHT22;32377;52.182;5.398;2022-09-02T05:08:54;14.90;99.90
46652;DHT22;32377;52.182;5.398;2022-09-02T05:11:22;14.90;99.90
46652;DHT22;32377;52.182;5.398;2022-09-02T05:13:49;14.90;99.90
46652;DHT22;32377;52.182;5.398;2022-09-02T05:16:21;15.00;99.90
46652;DHT22;32377;52.182;5.398;2022-09-02T05:18:48;15.00;99.90
46652;DHT22;32377;52.182;5.398;2022-09-02T05:21:14;14.90;99.90
46652;DHT22;32377;52.182;5.398;2022-09-02T05:23:41;15.00;99.90
46652;DHT22;32377;52.182;5.398;2022-09-02T05:26:08;15.00;99.90
46652;DHT22;32377;52.182;5.398;2022-09-02T05:28:35;15.00;99.90
46652;DHT22;32377;52.182;5.398;2022-09-02T05:31:03;14.90;99.90
46652;DHT22;32377;52.182;5.398;2022-09-02T05:33:31;15.00;99.90
46652;DHT22;32377;52.182;5.398;2022-09-02T05:35:56;15.00;99.90
46652;DHT22;32377;52.182;5.398;2022-09-02T05:38:22;15.00;99.90
46652;DHT22;32377;52.182;5.398;2022-09-02T05:40:49;15.00;99.90
46652;DHT22;32377;52.182;5.398;2022-09-02T05:43:15;15.10;99.90
46652;DHT22;32377;52.182;5.398;2022-09-02T05:45:41;15.10;99.90
46652;DHT22;32377;52.182;5.398;2022-09-02T05:48:06;15.20;99.90
46652;DHT22;32377;52.182;5.398;2022-09-02T05:50:52;15.30;99.90
46652;DHT22;32377;52.182;5.398;2022-09-02T05:53:18;15.40;99.90
46652;DHT22;32377;52.182;5.398;2022-09-02T05:55:44;15.40;99.90
46652;DHT22;32377;52.182;5.398;2022-09-02T05:58:09;15.50;99.90
46652;DHT22;32377;52.182;5.398;2022-09-02T06:00:36;15.50;99.90
46652;DHT22;32377;52.182;5.398;2022-09-02T06:03:02;15.50;99.90
46652;DHT22;32377;52.182;5.398;2022-09-02T06:05:28;15.50;99.90
46652;DHT22;32377;52.182;5.398;2022-09-02T06:07:53;15.50;99.90
46652;DHT22;32377;52.182;5.398;2022-09-02T06:10:19;15.60;99.90
46652;DHT22;32377;52.182;5.398;2022-09-02T06:12:45;15.60;99.90
46652;DHT22;32377;52.182;5.398;2022-09-02T06:15:10;15.70;99.90
46652;DHT22;32377;52.182;5.398;2022-09-02T06:17:36;15.80;99.90
46652;DHT22;32377;52.182;5.398;2022-09-02T06:20:03;16.00;99.90
46652;DHT22;32377;52.182;5.398;2022-09-02T06:22:29;16.10;99.90
46652;DHT22;32377;52.182;5.398;2022-09-02T06:24:54;16.20;99.90
46652;DHT22;32377;52.182;5.398;2022-09-02T06:27:20;16.30;99.90
46652;DHT22;32377;52.182;5.398;2022-09-02T06:29:45;16.30;99.90
46652;DHT22;32377;52.182;5.398;2022-09-02T06:32:11;16.30;99.90
46652;DHT22;32377;52.182;5.398;2022-09-02T06:34:36;16.40;99.90
46652;DHT22;32377;52.182;5.398;2022-09-02T06:37:03;16.50;99.90
46652;DHT22;32377;52.182;5.398;2022-09-02T06:39:29;16.70;99.90
46652;DHT22;32377;52.182;5.398;2022-09-02T06:41:55;16.80;99.90
46652;DHT22;32377;52.182;5.398;2022-09-02T06:44:21;17.00;99.90
46652;DHT22;32377;52.182;5.398;2022-09-02T06:46:53;17.10;99.90
46652;DHT22;32377;52.182;5.398;2022-09-02T06:49:19;17.20;99.90
46652;DHT22;32377;52.182;5.398;2022-09-02T06:51:47;17.30;99.90
46652;DHT22;32377;52.182;5.398;2022-09-02T06:54:18;17.30;99.90
46652;DHT22;32377;52.182;5.398;2022-09-02T06:56:44;17.40;99.90
46652;DHT22;32377;52.182;5.398;2022-09-02T06:59:10;17.50;99.90
46652;DHT22;32377;52.182;5.398;2022-09-02T07:01:36;17.50;99.90
46652;DHT22;32377;52.182;5.398;2022-09-02T07:04:03;17.70;99.90
46652;DHT22;32377;52.182;5.398;2022-09-02T07:06:50;17.80;99.90
46652;DHT22;32377;52.182;5.398;2022-09-02T07:09:19;17.90;99.90
46652;DHT22;32377;52.182;5.398;2022-09-02T07:11:46;18.00;99.90
46652;DHT22;32377;52.182;5.398;2022-09-02T07:14:17;18.20;99.90
46652;DHT22;32377;52.182;5.398;2022-09-02T07:16:48;18.20;99.90
46652;DHT22;32377;52.182;5.398;2022-09-02T07:19:14;18.30;99.90
46652;DHT22;32377;52.182;5.398;2022-09-02T07:21:40;18.40;99.90
46652;DHT22;32377;52.182;5.398;2022-09-02T07:24:06;18.40;99.90
46652;DHT22;32377;52.182;5.398;2022-09-02T07:26:32;18.50;99.90
46652;DHT22;32377;52.182;5.398;2022-09-02T07:28:58;18.50;99.90
46652;DHT22;32377;52.182;5.398;2022-09-02T07:31:24;18.60;99.90
46652;DHT22;32377;52.182;5.398;2022-09-02T07:33:51;18.60;99.90
46652;DHT22;32377;52.182;5.398;2022-09-02T07:36:17;18.60;99.90
46652;DHT22;32377;52.182;5.398;2022-09-02T07:38:46;18.60;99.90
46652;DHT22;32377;52.182;5.398;2022-09-02T07:41:12;18.60;99.90
46652;DHT22;32377;52.182;5.398;2022-09-02T07:43:38;18.70;99.90
46652;DHT22;32377;52.182;5.398;2022-09-02T07:46:05;18.70;99.90
46652;DHT22;32377;52.182;5.398;2022-09-02T07:48:32;18.70;99.90
46652;DHT22;32377;52.182;5.398;2022-09-02T07:50:59;18.70;99.90
46652;DHT22;32377;52.182;5.398;2022-09-02T07:53:28;18.80;99.90
46652;DHT22;32377;52.182;5.398;2022-09-02T07:55:53;18.80;99.90
46652;DHT22;32377;52.182;5.398;2022-09-02T07:58:20;18.90;99.90
46652;DHT22;32377;52.182;5.398;2022-09-02T08:00:47;18.90;99.80
46652;DHT22;32377;52.182;5.398;2022-09-02T08:03:13;18.80;99.90
46652;DHT22;32377;52.182;5.398;2022-09-02T08:05:39;18.80;99.90
46652;DHT22;32377;52.182;5.398;2022-09-02T08:08:06;18.80;99.90
46652;DHT22;32377;52.182;5.398;2022-09-02T08:10:33;18.90;99.90
46652;DHT22;32377;52.182;5.398;2022-09-02T08:12:59;19.00;99.90
46652;DHT22;32377;52.182;5.398;2022-09-02T08:15:30;19.10;99.90
46652;DHT22;32377;52.182;5.398;2022-09-02T08:17:56;19.20;99.90
46652;DHT22;32377;52.182;5.398;2022-09-02T08:20:22;19.30;99.90
46652;DHT22;32377;52.182;5.398;2022-09-02T08:22:47;19.50;99.90
46652;DHT22;32377;52.182;5.398;2022-09-02T08:25:14;19.60;99.90
46652;DHT22;32377;52.182;5.398;2022-09-02T08:27:40;19.70;99.90
46652;DHT22;32377;52.182;5.398;2022-09-02T08:30:07;19.80;99.90
46652;DHT22;32377;52.182;5.398;2022-09-02T08:32:35;20.00;99.90
46652;DHT22;32377;52.182;5.398;2022-09-02T08:35:01;20.10;99.90
46652;DHT22;32377;52.182;5.398;2022-09-02T08:37:29;20.30;99.90
46652;DHT22;32377;52.182;5.398;2022-09-02T08:39:59;20.50;99.60
46652;DHT22;32377;52.182;5.398;2022-09-02T08:42:46;20.70;99.50
46652;DHT22;32377;52.182;5.398;2022-09-02T08:45:38;20.70;99.10
46652;DHT22;32377;52.182;5.398;2022-09-02T08:50:39;21.00;99.60
46652;DHT22;32377;52.182;5.398;2022-09-02T08:53:31;21.10;99.10
46652;DHT22;32377;52.182;5.398;2022-09-02T08:56:02;21.20;99.10
46652;DHT22;32377;52.182;5.398;2022-09-02T08:58:37;21.20;98.50
46652;DHT22;32377;52.182;5.398;2022-09-02T09:01:28;21.30;99.00
46652;DHT22;32377;52.182;5.398;2022-09-02T09:14:30;21.40;98.60
46652;DHT22;32377;52.182;5.398;2022-09-02T09:17:12;21.60;98.40
46652;DHT22;32377;52.182;5.398;2022-09-02T09:22:21;21.70;98.40
46652;DHT22;32377;52.182;5.398;2022-09-02T09:24:49;21.80;98.30
46652;DHT22;32377;52.182;5.398;2022-09-02T09:27:21;22.00;98.30
46652;DHT22;32377;52.182;5.398;2022-09-02T09:29:48;22.00;98.40
46652;DHT22;32377;52.182;5.398;2022-09-02T09:32:26;22.10;98.20
46652;DHT22;32377;52.182;5.398;2022-09-02T09:34:57;22.00;98.30
46652;DHT22;32377;52.182;5.398;2022-09-02T09:37:34;22.10;98.00
46652;DHT22;32377;52.182;5.398;2022-09-02T09:40:00;22.20;98.40
46652;DHT22;32377;52.182;5.398;2022-09-02T09:42:34;22.30;98.60
46652;DHT22;32377;52.182;5.398;2022-09-02T09:45:25;22.30;98.00
46652;DHT22;32377;52.182;5.398;2022-09-02T09:51:10;22.40;98.20
46652;DHT22;32377;52.182;5.398;2022-09-02T09:53:38;22.50;98.10
46652;DHT22;32377;52.182;5.398;2022-09-02T10:01:12;22.80;97.70
46652;DHT22;32377;52.182;5.398;2022-09-02T10:08:55;23.10;97.90
46652;DHT22;32377;52.182;5.398;2022-09-02T10:11:24;23.10;97.30
46652;DHT22;32377;52.182;5.398;2022-09-02T10:13:50;23.20;97.80
46652;DHT22;32377;52.182;5.398;2022-09-02T10:16:45;23.20;97.30
46652;DHT22;32377;52.182;5.398;2022-09-02T10:19:51;23.40;97.10
46652;DHT22;32377;52.182;5.398;2022-09-02T10:22:30;23.50;97.50
46652;DHT22;32377;52.182;5.398;2022-09-02T10:36:22;23.60;97.30
46652;DHT22;32377;52.182;5.398;2022-09-02T10:38:53;23.80;97.20
46652;DHT22;32377;52.182;5.398;2022-09-02T10:41:40;23.80;96.70
46652;DHT22;32377;52.182;5.398;2022-09-02T10:44:29;23.90;96.60
46652;DHT22;32377;52.182;5.398;2022-09-02T10:47:02;24.10;97.10
46652;DHT22;32377;52.182;5.398;2022-09-02T10:52:30;24.20;96.40
46652;DHT22;32377;52.182;5.398;2022-09-02T10:57:32;24.20;96.60
46652;DHT22;32377;52.182;5.398;2022-09-02T11:00:16;24.30;96.90
46652;DHT22;32377;52.182;5.398;2022-09-02T11:02:54;24.50;96.30
46652;DHT22;32377;52.182;5.398;2022-09-02T11:05:23;24.40;96.90
46652;DHT22;32377;52.182;5.398;2022-09-02T11:10:40;24.40;97.00
46652;DHT22;32377;52.182;5.398;2022-09-02T11:21:02;24.60;96.90
46652;DHT22;32377;52.182;5.398;2022-09-02T11:32:44;25.10;96.40
46652;DHT22;32377;52.182;5.398;2022-09-02T11:35:17;25.00;95.60
46652;DHT22;32377;52.182;5.398;2022-09-02T11:37:50;25.00;95.30
46652;DHT22;32377;52.182;5.398;2022-09-02T11:40:31;25.00;95.60
46652;DHT22;32377;52.182;5.398;2022-09-02T11:44:00;25.00;95.70
46652;DHT22;32377;52.182;5.398;2022-09-02T11:48:51;25.10;94.40
46652;DHT22;32377;52.182;5.398;2022-09-02T11:51:35;25.40;93.30
46652;DHT22;32377;52.182;5.398;2022-09-02T11:54:05;25.60;93.00
46652;DHT22;32377;52.182;5.398;2022-09-02T11:56:39;25.60;92.20
46652;DHT22;32377;52.182;5.398;2022-09-02T11:59:07;25.70;92.30
46652;DHT22;32377;52.182;5.398;2022-09-02T12:01:36;25.80;92.50
46652;DHT22;32377;52.182;5.398;2022-09-02T12:04:18;26.00;92.50
46652;DHT22;32377;52.182;5.398;2022-09-02T12:17:37;26.50;92.00
46652;DHT22;32377;52.182;5.398;2022-09-02T12:20:10;26.60;91.30
46652;DHT22;32377;52.182;5.398;2022-09-02T12:22:38;26.60;91.40
46652;DHT22;32377;52.182;5.398;2022-09-02T12:27:49;26.90;91.40
46652;DHT22;32377;52.182;5.398;2022-09-02T12:33:33;26.90;91.50
46652;DHT22;32377;52.182;5.398;2022-09-02T12:35:59;26.80;91.40
46652;DHT22;32377;52.182;5.398;2022-09-02T12:55:22;25.40;93.00
46652;DHT22;32377;52.182;5.398;2022-09-02T12:57:51;25.40;93.30
46652;DHT22;32377;52.182;5.398;2022-09-02T13:03:42;25.20;93.40
46652;DHT22;32377;52.182;5.398;2022-09-02T13:20:38;25.10;94.10
46652;DHT22;32377;52.182;5.398;2022-09-02T13:32:22;24.80;92.50
46652;DHT22;32377;52.182;5.398;2022-09-02T13:34:50;24.80;92.60
46652;DHT22;32377;52.182;5.398;2022-09-02T13:37:52;25.00;93.10
46652;DHT22;32377;52.182;5.398;2022-09-02T13:40:23;25.20;92.30
46652;DHT22;32377;52.182;5.398;2022-09-02T13:42:51;25.20;91.40
46652;DHT22;32377;52.182;5.398;2022-09-02T13:45:19;25.40;91.30
46652;DHT22;32377;52.182;5.398;2022-09-02T13:47:48;25.40;91.20
46652;DHT22;32377;52.182;5.398;2022-09-02T13:50:17;25.50;92.10
46652;DHT22;32377;52.182;5.398;2022-09-02T13:52:46;25.50;91.70
46652;DHT22;32377;52.182;5.398;2022-09-02T13:55:14;25.60;91.40
46652;DHT22;32377;52.182;5.398;2022-09-02T13:57:58;25.60;92.10
46652;DHT22;32377;52.182;5.398;2022-09-02T14:00:28;25.60;91.40
46652;DHT22;32377;52.182;5.398;2022-09-02T14:03:11;25.60;92.10
46652;DHT22;32377;52.182;5.398;2022-09-02T14:05:39;25.60;91.80
46652;DHT22;32377;52.182;5.398;2022-09-02T14:08:07;25.60;91.90
46652;DHT22;32377;52.182;5.398;2022-09-02T14:10:36;25.70;91.70
46652;DHT22;32377;52.182;5.398;2022-09-02T14:13:06;25.90;90.80
46652;DHT22;32377;52.182;5.398;2022-09-02T14:15:32;25.90;90.90
46652;DHT22;32377;52.182;5.398;2022-09-02T14:18:14;25.90;90.50
46652;DHT22;32377;52.182;5.398;2022-09-02T14:21:09;26.00;90.70
46652;DHT22;32377;52.182;5.398;2022-09-02T14:23:47;25.90;90.50
46652;DHT22;32377;52.182;5.398;2022-09-02T14:26:24;25.90;90.80
46652;DHT22;32377;52.182;5.398;2022-09-02T14:28:51;25.90;90.70
46652;DHT22;32377;52.182;5.398;2022-09-02T14:31:25;25.90;90.50
46652;DHT22;32377;52.182;5.398;2022-09-02T14:33:53;25.90;90.50
46652;DHT22;32377;52.182;5.398;2022-09-02T14:38:53;26.00;90.60
46652;DHT22;32377;52.182;5.398;2022-09-02T14:41:25;26.10;90.70
46652;DHT22;32377;52.182;5.398;2022-09-02T14:43:57;26.20;90.30
46652;DHT22;32377;52.182;5.398;2022-09-02T14:46:35;26.00;90.20
46652;DHT22;32377;52.182;5.398;2022-09-02T14:51:43;26.00;90.60
46652;DHT22;32377;52.182;5.398;2022-09-02T14:54:10;26.00;90.90
46652;DHT22;32377;52.182;5.398;2022-09-02T14:56:52;26.00;90.30
46652;DHT22;32377;52.182;5.398;2022-09-02T14:59:18;26.20;90.60
46652;DHT22;32377;52.182;5.398;2022-09-02T15:01:49;26.20;90.70
46652;DHT22;32377;52.182;5.398;2022-09-02T15:04:16;26.20;90.30
46652;DHT22;32377;52.182;5.398;2022-09-02T15:06:43;26.20;90.50
46652;DHT22;32377;52.182;5.398;2022-09-02T15:09:08;26.20;91.30
46652;DHT22;32377;52.182;5.398;2022-09-02T15:11:38;26.00;90.70
46652;DHT22;32377;52.182;5.398;2022-09-02T15:14:05;25.90;91.00
46652;DHT22;32377;52.182;5.398;2022-09-02T15:16:31;25.80;90.90
46652;DHT22;32377;52.182;5.398;2022-09-02T15:18:56;25.90;91.40
46652;DHT22;32377;52.182;5.398;2022-09-02T15:21:22;26.00;91.60
46652;DHT22;32377;52.182;5.398;2022-09-02T15:23:48;26.10;91.40
46652;DHT22;32377;52.182;5.398;2022-09-02T15:26:15;26.10;91.50
46652;DHT22;32377;52.182;5.398;2022-09-02T15:28:41;26.20;91.00
46652;DHT22;32377;52.182;5.398;2022-09-02T15:31:08;26.10;90.50
46652;DHT22;32377;52.182;5.398;2022-09-02T15:33:34;26.10;91.10
46652;DHT22;32377;52.182;5.398;2022-09-02T15:36:08;25.90;91.60
46652;DHT22;32377;52.182;5.398;2022-09-02T15:38:34;25.90;91.40
46652;DHT22;32377;52.182;5.398;2022-09-02T15:41:17;25.80;90.60
46652;DHT22;32377;52.182;5.398;2022-09-02T15:43:43;25.80;90.60
46652;DHT22;32377;52.182;5.398;2022-09-02T15:48:47;25.60;91.00
46652;DHT22;32377;52.182;5.398;2022-09-02T15:51:14;25.50;91.00
46652;DHT22;32377;52.182;5.398;2022-09-02T15:53:40;25.50;91.20
46652;DHT22;32377;52.182;5.398;2022-09-02T15:56:23;25.50;91.50
46652;DHT22;32377;52.182;5.398;2022-09-02T15:58:54;25.50;91.30
46652;DHT22;32377;52.182;5.398;2022-09-02T16:01:23;25.50;91.30
46652;DHT22;32377;52.182;5.398;2022-09-02T16:03:48;25.50;91.70
46652;DHT22;32377;52.182;5.398;2022-09-02T16:06:14;25.50;91.30
46652;DHT22;32377;52.182;5.398;2022-09-02T16:08:39;25.40;91.20
46652;DHT22;32377;52.182;5.398;2022-09-02T16:11:06;25.40;91.60
46652;DHT22;32377;52.182;5.398;2022-09-02T16:13:34;25.40;91.90
46652;DHT22;32377;52.182;5.398;2022-09-02T16:16:01;25.40;91.50
46652;DHT22;32377;52.182;5.398;2022-09-02T16:18:27;25.30;91.50
46652;DHT22;32377;52.182;5.398;2022-09-02T16:20:52;25.20;91.40
46652;DHT22;32377;52.182;5.398;2022-09-02T16:23:18;25.10;92.10
46652;DHT22;32377;52.182;5.398;2022-09-02T16:25:43;25.10;91.60
46652;DHT22;32377;52.182;5.398;2022-09-02T16:28:09;25.10;91.40
46652;DHT22;32377;52.182;5.398;2022-09-02T16:30:34;25.10;91.50
46652;DHT22;32377;52.182;5.398;2022-09-02T16:33:00;25.20;91.90
46652;DHT22;32377;52.182;5.398;2022-09-02T16:35:26;25.00;91.60
46652;DHT22;32377;52.182;5.398;2022-09-02T16:37:51;25.00;91.90
46652;DHT22;32377;52.182;5.398;2022-09-02T16:40:18;25.00;92.40
46652;DHT22;32377;52.182;5.398;2022-09-02T16:42:46;25.00;92.40
46652;DHT22;32377;52.182;5.398;2022-09-02T16:45:11;24.90;91.50
46652;DHT22;32377;52.182;5.398;2022-09-02T16:47:37;24.90;91.90
46652;DHT22;32377;52.182;5.398;2022-09-02T16:50:03;24.80;91.70
46652;DHT22;32377;52.182;5.398;2022-09-02T16:52:28;24.80;92.10
46652;DHT22;32377;52.182;5.398;2022-09-02T16:54:56;24.80;91.80
46652;DHT22;32377;52.182;5.398;2022-09-02T16:57:21;24.80;91.70
46652;DHT22;32377;52.182;5.398;2022-09-02T16:59:47;24.70;91.90
46652;DHT22;32377;52.182;5.398;2022-09-02T17:02:13;24.60;92.00
46652;DHT22;32377;52.182;5.398;2022-09-02T17:04:39;24.60;92.00
46652;DHT22;32377;52.182;5.398;2022-09-02T17:07:04;24.60;91.90
46652;DHT22;32377;52.182;5.398;2022-09-02T17:09:30;24.60;92.00
46652;DHT22;32377;52.182;5.398;2022-09-02T17:11:55;24.50;92.70
46652;DHT22;32377;52.182;5.398;2022-09-02T17:14:21;24.40;92.30
46652;DHT22;32377;52.182;5.398;2022-09-02T17:16:48;24.40;92.00
46652;DHT22;32377;52.182;5.398;2022-09-02T17:19:15;24.30;91.80
46652;DHT22;32377;52.182;5.398;2022-09-02T17:21:50;24.30;92.50
46652;DHT22;32377;52.182;5.398;2022-09-02T17:24:16;24.30;91.80
46652;DHT22;32377;52.182;5.398;2022-09-02T17:26:45;24.20;91.90
46652;DHT22;32377;52.182;5.398;2022-09-02T17:29:13;24.20;91.70
46652;DHT22;32377;52.182;5.398;2022-09-02T17:31:41;24.20;92.20
46652;DHT22;32377;52.182;5.398;2022-09-02T17:34:08;24.10;92.60
46652;DHT22;32377;52.182;5.398;2022-09-02T17:36:38;24.00;92.30
46652;DHT22;32377;52.182;5.398;2022-09-02T17:39:06;24.00;92.50
46652;DHT22;32377;52.182;5.398;2022-09-02T17:41:32;23.90;92.10
46652;DHT22;32377;52.182;5.398;2022-09-02T17:44:17;23.90;92.30
46652;DHT22;32377;52.182;5.398;2022-09-02T17:46:44;23.90;92.80
46652;DHT22;32377;52.182;5.398;2022-09-02T17:49:11;23.80;92.20
46652;DHT22;32377;52.182;5.398;2022-09-02T17:51:37;23.80;92.30
46652;DHT22;32377;52.182;5.398;2022-09-02T17:54:04;23.70;92.50
46652;DHT22;32377;52.182;5.398;2022-09-02T17:59:35;23.60;92.50
46652;DHT22;32377;52.182;5.398;2022-09-02T18:10:03;23.30;92.40
46652;DHT22;32377;52.182;5.398;2022-09-02T18:12:29;23.30;92.30